Latest Weather Observations for Derby

IDW60801

Issued at 9:32 pm WST Tuesday 24 May 2016 (issued every 30 minutes, with the page automatically refreshed every 10 minutes)

About weather observations | Map of weather stations | Latest weather observations for WA | Other Formats
Station Details ID: 003032 Name: DERBY AERO Lat: -17.37 Lon: 123.66 Height: 6.2 m
Data from the previous 72 hours. | See also: Recent months at Derby
Date/Time
WST
Temp
°C
App
Temp
°C
Dew
Point
Rel
Hum
%
Delta-T
°C
Wind Press
QNH
hPa
Press
MSL
hPa
Rain
since 9 am
mm
Dir
 
Spd
km/h
Gust
km/h
Spd
kts
Gust
kts
24/09:30pm 23.3 25.1 17.5 70 3.6 ESE 4 13 2 7 1013.2 1013.2 0.0
24/09:00pm 23.6 26.0 17.1 67 4.0 CALM 0 0 0 0 1013.2 1013.2 0.0
24/08:30pm 24.3 26.9 17.5 66 4.2 CALM 0 0 0 0 1013.1 1013.1 0.0
24/08:00pm 24.5 27.0 17.2 63 4.5 CALM 0 0 0 0 1013.0 1013.0 0.0
24/07:30pm 25.2 27.6 17.1 60 5.0 CALM 0 0 0 0 1012.8 1012.8 0.0
24/07:00pm 26.0 28.6 17.4 59 5.4 CALM 0 0 0 0 1012.5 1012.5 0.0
24/06:30pm 26.4 28.9 17.2 57 5.7 CALM 0 0 0 0 1012.1 1012.1 0.0
24/06:00pm 27.1 28.7 17.8 56 5.9 NW 6 7 3 4 1011.8 1011.8 0.0
24/05:30pm 28.0 28.8 17.2 52 6.8 NW 9 11 5 6 1011.8 1011.8 0.0
24/05:00pm 29.5 29.7 16.7 46 8.0 NW 11 13 6 7 1011.6 1011.6 0.0
24/04:30pm 30.8 30.8 17.1 43 8.7 NW 13 17 7 9 1011.5 1011.5 0.0
24/04:00pm 31.5 30.8 16.3 40 9.5 NW 15 19 8 10 1011.4 1011.4 0.0
24/03:30pm 31.6 31.1 17.9 44 8.8 NW 17 20 9 11 1011.2 1011.2 0.0
24/03:00pm 32.6 33.3 18.8 44 9.0 NW 13 19 7 10 1011.1 1011.1 0.0
24/02:30pm 32.2 32.8 17.7 42 9.3 WNW 11 17 6 9 1011.2 1011.2 0.0
24/02:00pm 32.0 31.9 17.9 43 9.1 WNW 15 19 8 10 1011.5 1011.5 0.0
24/01:30pm 32.4 33.3 17.5 41 9.5 NW 9 19 5 10 1011.5 1011.5 0.0
24/01:00pm 31.8 33.0 17.3 42 9.2 S 7 9 4 5 1011.8 1011.8 0.0
24/12:30pm 31.3 32.1 17.2 42 8.9 WNW 9 13 5 7 1012.1 1012.1 0.0
24/12:00pm 30.8 32.1 17.1 43 8.7 W 6 9 3 5 1012.6 1012.6 0.0
24/11:30am 30.1 31.9 18.2 49 7.6 SW 6 13 3 7 1013.1 1013.1 0.0
24/11:00am 28.5 29.5 17.7 52 6.8 S 9 15 5 8 1013.4 1013.4 0.0
24/10:30am 27.7 28.7 17.8 54 6.3 SSW 9 13 5 7 1013.8 1013.8 0.0
24/10:00am 27.0 28.0 17.8 57 5.8 SSE 9 13 5 7 1014.2 1014.2 0.0
24/09:30am 26.1 26.9 17.2 58 5.5 S 9 13 5 7 1014.5 1014.5 0.0
24/09:00am 25.2 26.0 18.2 65 4.4 SSE 11 15 6 8 1014.6 1014.6 0.0
24/08:30am 23.9 24.2 17.9 69 3.8 SSE 13 17 7 9 1014.6 1014.6 0.0
24/08:00am 22.3 22.6 17.9 76 2.7 SSE 13 17 7 9 1014.5 1014.5 0.0
24/07:30am 21.2 21.5 18.0 82 2.0 SSE 13 15 7 8 1014.4 1014.4 0.0
24/07:00am 19.7 20.9 17.3 86 1.5 S 7 11 4 6 1014.4 1014.4 0.0
24/06:30am 18.8 19.5 17.1 90 1.0 S 9 9 5 5 1014.1 1014.1 0.0
24/06:00am 18.8 19.7 17.5 92 0.8 SSE 9 11 5 6 1013.7 1013.7 0.0
24/05:30am 18.8 19.7 17.6 93 0.7 SE 9 11 5 6 1013.3 1013.3 0.0
24/05:00am 18.9 19.8 17.6 92 0.8 SE 9 11 5 6 1013.2 1013.2 0.0
24/04:30am 18.9 19.7 17.4 91 0.9 SE 9 11 5 6 1013.2 1013.2 0.0
24/04:00am 19.2 20.1 17.5 90 1.0 SE 9 13 5 7 1013.1 1013.1 0.0
24/03:30am 19.4 20.2 17.2 87 1.3 SSE 9 13 5 7 1013.2 1013.2 0.0
24/03:00am 19.5 20.5 16.9 85 1.6 S 7 11 4 6 1013.3 1013.3 0.0
24/02:30am 19.6 20.0 17.2 86 1.5 S 11 13 6 7 1013.3 1013.3 0.0
24/02:00am 19.7 20.5 17.3 86 1.5 S 9 11 5 6 1013.4 1013.4 0.0
24/01:30am 19.8 21.0 17.4 86 1.5 SSE 7 9 4 5 1013.7 1013.7 0.0
24/01:00am 19.9 21.1 17.3 85 1.6 SSE 7 11 4 6 1013.9 1013.9 0.0
24/12:30am 20.1 21.5 17.3 84 1.7 SE 6 7 3 4 1014.1 1014.1 0.0
24/12:00am 20.3 21.5 17.3 83 1.8 S 7 11 4 6 1014.5 1014.5 0.0
 
Date/Time
WST
Temp
°C
App
Temp
°C
Dew
Point
Rel
Hum
%
Delta-T
°C
Wind Press
QNH
hPa
Press
MSL
hPa
Rain
since 9 am
mm
Dir
 
Spd
km/h
Gust
km/h
Spd
kts
Gust
kts
23/11:30pm 20.4 21.5 17.2 82 2.0 SSE 7 9 4 5 1014.6 1014.6 0.0
23/11:00pm 20.6 21.4 17.2 81 2.1 S 9 11 5 6 1014.8 1014.8 0.0
23/10:30pm 20.7 21.6 17.5 82 2.0 SSE 9 11 5 6 1014.9 1014.9 0.0
23/10:00pm 20.7 21.9 17.3 81 2.1 S 7 9 4 5 1015.2 1015.2 0.0
23/09:30pm 20.9 22.3 17.3 80 2.2 S 6 9 3 5 1015.4 1015.4 0.0
23/09:00pm 21.2 22.8 17.8 81 2.1 SE 6 7 3 4 1015.4 1015.4 0.0
23/08:30pm 21.2 22.8 17.8 81 2.1 SSE 6 7 3 4 1015.4 1015.4 0.0
23/08:00pm 21.4 22.9 17.6 79 2.3 ESE 6 7 3 4 1015.4 1015.4 0.0
23/07:30pm 21.7 22.6 17.5 77 2.6 ESE 9 13 5 7 1015.2 1015.2 0.0
23/07:00pm 21.9 22.8 17.5 76 2.7 SE 9 13 5 7 1015.2 1015.2 0.0
23/06:30pm 22.3 21.5 17.2 73 3.1 SE 17 20 9 11 1014.8 1014.8 0.0
23/06:00pm 22.6 21.4 17.1 71 3.4 SE 19 24 10 13 1014.6 1014.6 0.0
23/05:30pm 23.0 21.4 17.5 71 3.4 SE 22 30 12 16 1014.3 1014.3 0.0
23/05:00pm 23.8 21.6 17.8 69 3.7 SE 26 37 14 20 1014.0 1014.0 0.0
23/04:30pm 24.6 21.6 17.8 66 4.3 SE 30 39 16 21 1014.1 1014.1 0.0
23/04:00pm 25.2 22.6 17.7 63 4.7 SE 28 37 15 20 1013.7 1013.7 0.0
23/03:30pm 25.5 23.1 18.2 64 4.6 SE 28 35 15 19 1013.6 1013.6 0.0
23/03:00pm 26.3 24.1 18.7 63 4.9 SE 28 39 15 21 1013.5 1013.5 0.0
23/02:30pm 26.8 25.1 18.9 62 5.1 ESE 26 35 14 19 1013.3 1013.3 0.0
23/02:00pm 26.2 24.0 18.6 63 4.8 SE 28 37 15 20 1013.4 1013.4 0.0
23/01:30pm 26.6 23.5 18.5 61 5.2 SSE 32 39 17 21 1013.4 1013.4 0.0
23/01:00pm 27.4 25.1 18.4 58 5.7 SSE 28 39 15 21 1013.4 1013.4 0.0
23/12:30pm 28.0 26.4 19.2 58 5.7 SE 26 32 14 17 1013.7 1013.7 0.0
23/12:00pm 27.7 25.5 18.7 58 5.8 SE 28 35 15 19 1014.1 1014.1 0.0
23/11:30am 27.4 25.3 20.5 66 4.5 ESE 32 41 17 22 1014.3 1014.3 0.0
23/11:00am 28.5 27.3 20.8 63 5.1 SE 28 35 15 19 1014.6 1014.6 0.0
23/10:30am 27.5 25.0 20.1 64 4.8 ESE 33 41 18 22 1014.8 1014.8 0.0
23/10:00am 27.2 26.2 21.2 69 4.0 SE 28 35 15 19 1015.2 1015.2 0.0
23/09:30am 26.0 26.1 20.3 71 3.7 SE 20 32 11 17 1015.4 1015.4 0.0
23/09:00am 25.4 25.1 21.1 77 2.8 ESE 24 35 13 19 1015.3 1015.3 0.6
23/08:30am 24.8 26.4 22.1 85 1.8 E 17 26 9 14 1015.2 1015.2 0.6
23/08:00am 24.6 25.7 21.9 85 1.8 ESE 19 24 10 13 1015.2 1015.2 0.6
23/07:30am 24.5 25.4 21.6 84 1.9 ESE 19 24 10 13 1014.7 1014.7 0.6
23/07:00am 24.3 25.5 21.4 84 1.9 SE 17 24 9 13 1014.6 1014.6 0.6
23/06:30am 24.0 26.3 22.1 89 1.3 SE 13 15 7 8 1014.5 1014.5 0.6
23/06:00am 24.6 26.5 21.3 82 2.2 S 13 15 7 8 1014.1 1014.1 0.0
23/05:30am 24.8 27.7 21.1 80 2.4 SSE 7 11 4 6 1013.7 1013.7 0.0
23/05:00am 24.7 27.5 20.8 79 2.6 S 7 9 4 5 1013.3 1013.3 0.0
23/04:30am 24.7 27.5 20.8 79 2.6 SW 7 9 4 5 1013.4 1013.4 0.0
23/04:00am 24.7 27.1 20.8 79 2.6 SSW 9 9 5 5 1013.1 1013.1 0.0
23/03:30am 24.7 27.7 20.8 79 2.6 SSW 6 7 3 4 1013.1 1013.1 0.0
23/03:00am 24.8 27.7 20.7 78 2.7 SSW 6 7 3 4 1012.8 1012.8 0.0
23/02:30am 25.0 27.7 20.7 77 2.8 S 7 9 4 5 1013.0 1013.0 0.0
23/02:00am 25.1 27.6 21.0 78 2.7 WSW 9 11 5 6 1013.4 1013.4 0.0
23/01:30am 25.2 28.0 20.9 77 2.8 SW 7 9 4 5 1013.0 1013.0 0.0
23/01:00am 25.3 27.4 21.0 77 2.8 SW 11 13 6 7 1013.4 1013.4 0.0
23/12:30am 25.2 27.5 21.3 79 2.6 WSW 11 15 6 8 1013.7 1013.7 0.0
23/12:00am 25.2 27.4 21.1 78 2.7 WSW 11 13 6 7 1013.5 1013.5 0.0
 
Date/Time
WST
Temp
°C
App
Temp
°C
Dew
Point
Rel
Hum
%
Delta-T
°C
Wind Press
QNH
hPa
Press
MSL
hPa
Rain
since 9 am
mm
Dir
 
Spd
km/h
Gust
km/h
Spd
kts
Gust
kts
22/11:30pm 25.2 27.6 20.9 77 2.8 SSW 9 11 5 6 1013.5 1013.5 0.0
22/11:00pm 25.3 27.3 20.8 76 3.0 SSW 11 15 6 8 1013.5 1013.5 0.0
22/10:30pm 25.4 27.3 20.6 75 3.1 S 11 13 6 7 1013.6 1013.6 0.0
22/10:00pm 25.6 27.6 20.8 75 3.2 S 11 17 6 9 1013.8 1013.8 0.0
22/09:30pm 25.5 26.7 20.7 75 3.1 SSE 15 20 8 11 1013.7 1013.7 0.0
22/09:00pm 25.5 26.1 21.0 76 3.0 SSE 19 22 10 12 1013.7 1013.7 0.0
22/08:30pm 25.5 26.2 21.2 77 2.8 SSE 19 24 10 13 1013.9 1013.9 0.0
22/08:00pm 25.4 25.8 20.9 76 3.0 S 20 26 11 14 1013.9 1013.9 0.0
22/07:30pm 25.6 25.1 19.9 70 3.7 S 22 28 12 15 1013.6 1013.6 0.0
22/07:00pm 25.7 25.9 20.5 73 3.4 SSW 20 24 11 13 1013.4 1013.4 0.0
22/06:30pm 27.1 28.6 19.7 64 4.8 SSW 11 15 6 8 1013.2 1013.2 0.0
22/06:00pm 27.0 27.2 19.4 63 4.9 SSW 17 22 9 12 1012.6 1012.6 0.0
22/05:30pm 25.7 26.4 20.5 73 3.4 SSE 17 24 9 13 1012.4 1012.4 0.0
22/05:00pm 27.8 29.3 19.8 61 5.2 ENE 11 19 6 10 1012.8 1012.8 0.0
22/04:30pm 27.9 26.2 19.7 61 5.3 NNW 28 35 15 19 1012.5 1012.5 0.0
22/04:00pm 29.2 27.0 19.5 56 6.3 NW 30 41 16 22 1012.0 1012.0 0.0
22/03:58pm 29.5 27.4 18.9 53 6.9 NW 28 41 15 22 1011.9 1011.9 0.0
22/03:30pm 29.7 29.7 19.7 55 6.5 NW 19 22 10 12 1011.7 1011.7 0.0
22/03:00pm 29.7 31.5 20.3 57 6.2 WNW 11 15 6 8 1011.6 1011.6 0.0
22/02:30pm 30.4 30.9 20.0 53 6.8 WNW 17 22 9 12 1011.6 1011.6 0.0
22/02:00pm 31.4 30.9 18.7 46 8.2 NW 19 24 10 13 1011.4 1011.4 0.0
22/01:30pm 32.2 33.0 19.1 45 8.6 NW 13 19 7 10 1011.4 1011.4 0.0
22/01:00pm 32.0 31.9 19.6 47 8.2 WNW 19 24 10 13 1011.5 1011.5 0.0
22/12:30pm 32.4 31.8 16.7 39 9.9 NNE 15 22 8 12 1011.7 1011.7 0.0
22/12:00pm 32.2 32.8 17.7 42 9.3 NE 11 20 6 11 1012.2 1012.2 0.0
22/11:30am 32.2 34.0 18.8 45 8.7 SSE 7 13 4 7 1012.6 1012.6 0.0
22/11:00am 32.2 33.4 19.1 45 8.6 NNE 11 17 6 9 1013.1 1013.1 0.0
22/10:30am 30.6 32.4 19.6 51 7.2 SE 9 19 5 10 1013.6 1013.6 0.0
22/10:00am 30.0 32.0 20.0 55 6.6 ESE 9 17 5 9 1014.2 1014.2 0.0
22/09:30am 29.4 31.2 20.3 58 6.0 SE 11 17 6 9 1014.4 1014.4 0.0
22/09:00am 28.8 30.3 20.5 61 5.5 SE 13 19 7 10 1014.5 1014.5 0.0
22/08:30am 27.9 29.2 20.2 63 5.0 SSE 13 19 7 10 1014.4 1014.4 0.0
22/08:00am 27.6 30.3 20.7 66 4.6 ESE 7 13 4 7 1014.2 1014.2 0.0
22/07:30am 26.4 29.1 20.7 71 3.7 NE 7 9 4 5 1013.8 1013.8 0.0
22/07:00am 24.6 26.8 20.5 78 2.7 ENE 9 13 5 7 1013.4 1013.4 0.0
22/06:30am 24.3 27.1 20.4 79 2.5 E 6 7 3 4 1013.3 1013.3 0.0
22/06:00am 24.3 26.4 20.2 78 2.7 SSE 9 11 5 6 1012.9 1012.9 0.0
22/05:30am 24.5 26.7 20.4 78 2.7 SE 9 11 5 6 1012.6 1012.6 0.0
22/05:00am 24.3 26.4 20.2 78 2.7 SE 9 11 5 6 1012.4 1012.4 0.0
22/04:30am 24.5 27.2 20.2 77 2.8 SE 6 7 3 4 1012.4 1012.4 0.0
22/04:00am 24.6 27.3 20.3 77 2.8 SE 6 7 3 4 1012.2 1012.2 0.0
22/03:30am 24.6 27.3 20.3 77 2.8 SSE 6 7 3 4 1012.2 1012.2 0.0
22/03:00am 24.3 26.7 20.0 77 2.8 S 7 9 4 5 1012.2 1012.2 0.0
22/02:30am 24.6 26.9 19.9 75 3.0 SSE 7 9 4 5 1012.1 1012.1 0.0
22/02:00am 24.8 26.9 19.4 72 3.5 S 7 9 4 5 1012.3 1012.3 0.0
22/01:30am 25.2 27.4 19.6 71 3.6 SSW 7 9 4 5 1012.5 1012.5 0.0
22/01:00am 25.2 27.3 19.3 70 3.8 S 7 7 4 4 1012.5 1012.5 0.0
22/12:30am 25.5 27.9 19.6 70 3.8 SSW 6 7 3 4 1012.6 1012.6 0.0
22/12:00am 25.0 28.1 19.4 71 3.6 W 2 6 1 3 1012.6 1012.6 0.0
 
Date/Time
WST
Temp
°C
App
Temp
°C
Dew
Point
Rel
Hum
%
Delta-T
°C
Wind Press
QNH
hPa
Press
MSL
hPa
Rain
since 9 am
mm
Dir
 
Spd
km/h
Gust
km/h
Spd
kts
Gust
kts
21/11:30pm 25.2 28.1 19.1 69 3.9 W 2 6 1 3 1012.7 1012.7 0.0
21/11:00pm 25.4 27.4 18.8 67 4.2 W 6 7 3 4 1012.9 1012.9 0.0
21/10:30pm 25.7 27.4 18.6 65 4.5 WNW 7 11 4 6 1012.8 1012.8 0.0
21/10:00pm 26.5 27.3 19.1 64 4.8 WNW 13 15 7 8 1013.0 1013.0 0.0

Other Formats:

Comma delimited format used in spreadsheet applications
http://www.bom.gov.au/fwo/IDW60801/IDW60801.95205.axf

JavaScript Object Notation format (JSON) in row-major order
http://www.bom.gov.au/fwo/IDW60801/IDW60801.95205.json